createdAt,value
2018-01-14T00:00:53.293Z,99.90
2018-01-14T00:03:21.174Z,99.80
2018-01-14T00:05:49.140Z,99.80
2018-01-14T00:08:17.039Z,99.90
2018-01-14T00:10:44.971Z,99.90
2018-01-14T00:13:29.821Z,99.90
2018-01-14T00:15:59.116Z,99.90
2018-01-14T00:18:27.092Z,99.90
2018-01-14T00:20:55.163Z,99.90
2018-01-14T00:23:23.060Z,99.90
2018-01-14T00:25:50.995Z,99.90
2018-01-14T00:28:21.158Z,99.90
2018-01-14T00:30:49.165Z,99.90
2018-01-14T00:33:17.096Z,99.90
2018-01-14T00:35:45.090Z,99.90
2018-01-14T00:38:13.761Z,99.90
2018-01-14T00:40:42.473Z,99.90
2018-01-14T00:43:10.360Z,99.90
2018-01-14T00:45:38.387Z,99.90
2018-01-14T00:48:06.380Z,99.90
2018-01-14T00:50:34.329Z,99.90
2018-01-14T00:53:02.215Z,99.90
2018-01-14T00:55:30.963Z,99.90
2018-01-14T00:57:58.955Z,99.90
2018-01-14T01:00:26.904Z,99.90
2018-01-14T01:02:54.817Z,99.90
2018-01-14T01:05:22.756Z,99.90
2018-01-14T01:07:50.652Z,99.90
2018-01-14T01:10:19.414Z,99.90
2018-01-14T01:12:47.368Z,99.90
2018-01-14T01:15:15.315Z,99.90
2018-01-14T01:17:43.232Z,99.90
2018-01-14T01:20:11.188Z,99.90
2018-01-14T01:22:39.115Z,99.90
2018-01-14T01:25:07.046Z,99.90
2018-01-14T01:27:35.046Z,99.90
2018-01-14T01:30:03.011Z,99.90
2018-01-14T01:32:30.915Z,99.90
2018-01-14T01:34:58.882Z,99.90
2018-01-14T01:37:26.797Z,99.90
2018-01-14T01:39:54.759Z,99.90
2018-01-14T01:42:23.435Z,99.90
2018-01-14T01:44:51.400Z,99.90
2018-01-14T01:47:19.514Z,99.90
2018-01-14T01:49:47.468Z,99.90
2018-01-14T01:52:15.479Z,99.90
2018-01-14T01:54:43.414Z,99.90
2018-01-14T01:57:12.211Z,99.90
2018-01-14T01:59:40.110Z,99.90
2018-01-14T02:02:08.073Z,99.90
2018-01-14T02:04:35.964Z,99.90
2018-01-14T02:07:04.753Z,99.90
2018-01-14T02:09:32.629Z,99.90
2018-01-14T02:12:00.584Z,99.90
2018-01-14T02:14:28.464Z,99.90
2018-01-14T02:17:00.203Z,99.90
2018-01-14T02:19:28.084Z,99.90
2018-01-14T02:21:56.028Z,99.90
2018-01-14T02:24:23.957Z,99.90
2018-01-14T02:26:52.671Z,99.90
2018-01-14T02:29:20.597Z,99.90
2018-01-14T02:31:48.545Z,99.90
2018-01-14T02:34:16.436Z,99.90
2018-01-14T02:36:44.396Z,99.90
2018-01-14T02:39:12.324Z,99.90
2018-01-14T02:41:40.292Z,99.90
2018-01-14T02:44:08.206Z,99.90
2018-01-14T02:46:42.448Z,99.90
2018-01-14T02:49:11.154Z,99.90
2018-01-14T02:51:39.100Z,99.90
2018-01-14T02:54:07.010Z,99.90
2018-01-14T02:56:34.955Z,99.90
2018-01-14T02:59:02.884Z,99.90
2018-01-14T03:01:30.853Z,99.90
2018-01-14T03:03:58.773Z,99.90
2018-01-14T03:06:26.763Z,99.90
2018-01-14T03:08:54.688Z,99.90
2018-01-14T03:11:22.658Z,99.90
2018-01-14T03:13:50.553Z,99.90
2018-01-14T03:16:23.379Z,99.90
2018-01-14T03:18:51.273Z,99.90
2018-01-14T03:21:19.209Z,99.90
2018-01-14T03:23:47.105Z,99.90
2018-01-14T03:26:15.081Z,99.90
2018-01-14T03:28:43.014Z,99.90
2018-01-14T03:31:10.979Z,99.90
2018-01-14T03:33:38.887Z,99.90
2018-01-14T03:36:06.871Z,99.90
2018-01-14T03:38:34.776Z,99.90
2018-01-14T03:41:02.722Z,99.90
2018-01-14T03:43:30.600Z,99.90
2018-01-14T03:45:58.544Z,99.90
2018-01-14T03:48:27.228Z,99.90
2018-01-14T03:50:55.196Z,99.90
2018-01-14T03:53:23.090Z,99.90
2018-01-14T03:55:51.047Z,99.90
2018-01-14T03:58:18.963Z,99.90
2018-01-14T04:00:46.938Z,99.90
2018-01-14T04:03:14.818Z,99.90
2018-01-14T04:05:42.759Z,99.90
2018-01-14T04:08:10.686Z,99.90
2018-01-14T04:10:39.380Z,99.90
2018-01-14T04:13:08.053Z,99.90
2018-01-14T04:15:36.026Z,99.90
2018-01-14T04:18:03.944Z,99.90
2018-01-14T04:20:31.896Z,99.90
2018-01-14T04:22:59.795Z,99.90
2018-01-14T04:25:27.732Z,99.90
2018-01-14T04:27:55.628Z,99.90
2018-01-14T04:30:23.581Z,99.90
2018-01-14T04:32:51.527Z,99.90
2018-01-14T04:35:20.192Z,99.90
2018-01-14T04:37:48.610Z,99.90
2018-01-14T04:40:16.762Z,99.90
2018-01-14T04:42:44.721Z,99.90
2018-01-14T04:45:12.624Z,99.90
2018-01-14T04:47:40.557Z,99.90
2018-01-14T04:50:08.437Z,99.90
2018-01-14T04:52:36.394Z,99.90
2018-01-14T04:55:04.498Z,99.90
2018-01-14T04:57:32.416Z,99.90
2018-01-14T05:00:00.324Z,99.90
2018-01-14T05:02:29.062Z,99.90
2018-01-14T05:04:56.962Z,99.90
2018-01-14T05:07:25.096Z,99.90
2018-01-14T05:09:53.018Z,99.90
2018-01-14T05:12:22.219Z,99.90
2018-01-14T05:14:50.114Z,99.90
2018-01-14T05:17:18.064Z,99.90
2018-01-14T05:19:45.973Z,99.90
2018-01-14T05:22:13.933Z,99.90
2018-01-14T05:24:41.835Z,99.90
2018-01-14T05:27:09.792Z,99.90
2018-01-14T05:29:37.785Z,99.90
2018-01-14T05:32:05.742Z,99.90
2018-01-14T05:34:33.628Z,99.80
2018-01-14T05:37:01.635Z,99.90
2018-01-14T05:39:29.529Z,99.90
2018-01-14T05:41:57.448Z,99.80
2018-01-14T05:44:26.116Z,99.90
2018-01-14T05:46:54.102Z,99.90
2018-01-14T05:49:21.995Z,99.90
2018-01-14T05:51:49.962Z,99.80
2018-01-14T05:54:17.857Z,99.90
2018-01-14T05:56:45.815Z,99.90
2018-01-14T05:59:13.690Z,99.90
2018-01-14T06:01:41.649Z,99.90
2018-01-14T06:04:09.560Z,99.90
2018-01-14T06:06:37.606Z,99.90
2018-01-14T06:09:05.562Z,99.90
2018-01-14T06:11:34.408Z,99.90
2018-01-14T06:14:02.310Z,99.90
2018-01-14T06:16:30.264Z,99.90
2018-01-14T06:18:58.176Z,99.90
2018-01-14T06:21:26.128Z,99.90
2018-01-14T06:23:54.027Z,99.90
2018-01-14T06:26:21.960Z,99.90
2018-01-14T06:28:49.836Z,99.90
2018-01-14T06:31:17.777Z,99.90
2018-01-14T06:33:45.686Z,99.90
2018-01-14T06:36:14.482Z,99.90
2018-01-14T06:38:42.375Z,99.90
2018-01-14T06:41:10.326Z,99.90
2018-01-14T06:43:38.216Z,99.90
2018-01-14T06:46:06.172Z,99.90
2018-01-14T06:48:34.065Z,99.90
2018-01-14T06:51:02.037Z,99.90
2018-01-14T06:53:29.992Z,99.90
2018-01-14T06:55:57.904Z,99.90
2018-01-14T06:58:25.837Z,99.90
2018-01-14T07:00:53.775Z,99.90
2018-01-14T07:03:21.717Z,99.90
2018-01-14T07:05:49.624Z,99.90
2018-01-14T07:08:17.577Z,99.90
2018-01-14T07:10:45.480Z,99.90
2018-01-14T07:13:13.419Z,99.90
2018-01-14T07:15:41.341Z,99.90
2018-01-14T07:18:09.280Z,99.90
2018-01-14T07:20:37.172Z,99.90
2018-01-14T07:23:05.122Z,99.90
2018-01-14T07:25:33.006Z,99.90
2018-01-14T07:28:04.630Z,99.90
2018-01-14T07:30:32.531Z,99.90
2018-01-14T07:33:00.637Z,99.90
2018-01-14T07:35:28.528Z,99.90
2018-01-14T07:37:56.448Z,99.90
2018-01-14T07:40:24.345Z,99.90
2018-01-14T07:42:54.761Z,99.90
2018-01-14T07:45:23.710Z,99.90
2018-01-14T07:47:51.649Z,99.90
2018-01-14T07:50:19.566Z,99.90
2018-01-14T07:52:48.864Z,99.90
2018-01-14T07:55:16.768Z,99.90
2018-01-14T07:57:44.728Z,99.90
2018-01-14T08:00:13.413Z,99.90
2018-01-14T08:02:41.351Z,99.90
2018-01-14T08:05:09.301Z,99.90
2018-01-14T08:07:37.251Z,99.90
2018-01-14T08:10:08.376Z,99.90
2018-01-14T08:12:41.389Z,99.90
2018-01-14T08:15:14.350Z,99.90
2018-01-14T08:17:47.003Z,99.90
2018-01-14T08:20:18.916Z,99.90
2018-01-14T08:22:47.072Z,99.90
2018-01-14T08:25:14.963Z,99.80
2018-01-14T08:27:42.916Z,99.60
2018-01-14T08:30:10.833Z,99.70
2018-01-14T08:32:38.785Z,99.40
2018-01-14T08:35:06.699Z,99.20
2018-01-14T08:37:34.679Z,99.00
2018-01-14T08:40:02.565Z,98.70
2018-01-14T08:42:30.506Z,98.30
2018-01-14T08:44:58.403Z,98.70
2018-01-14T08:47:27.544Z,98.50
2018-01-14T08:49:55.445Z,98.50
2018-01-14T08:52:23.444Z,97.90
2018-01-14T08:54:51.383Z,98.50
2018-01-14T08:57:20.083Z,98.10
2018-01-14T08:59:48.728Z,97.60
2018-01-14T09:02:16.656Z,97.60
2018-01-14T09:04:44.546Z,97.70
2018-01-14T09:07:12.497Z,97.40
2018-01-14T09:09:40.413Z,97.50
2018-01-14T09:12:08.394Z,97.40
2018-01-14T09:14:36.276Z,97.10
2018-01-14T09:17:06.263Z,97.50
2018-01-14T09:19:34.228Z,97.50
2018-01-14T09:22:02.175Z,97.10
2018-01-14T09:24:30.083Z,97.10
2018-01-14T09:26:59.207Z,97.50
2018-01-14T09:29:27.325Z,97.90
2018-01-14T09:31:55.385Z,97.10
2018-01-14T09:34:23.334Z,96.70
2018-01-14T09:36:51.285Z,96.60
2018-01-14T09:39:19.972Z,96.80
2018-01-14T09:41:48.639Z,96.00
2018-01-14T09:44:18.263Z,96.30
2018-01-14T09:46:47.586Z,96.30
2018-01-14T09:49:15.563Z,96.40
2018-01-14T09:51:43.470Z,96.50
2018-01-14T09:54:11.396Z,96.20
2018-01-14T09:56:39.431Z,96.10
2018-01-14T09:59:07.394Z,96.30
2018-01-14T10:01:35.311Z,96.00
2018-01-14T10:04:03.277Z,95.70
2018-01-14T10:06:31.191Z,95.50
2018-01-14T10:08:59.096Z,96.30
2018-01-14T10:11:27.817Z,95.90
2018-01-14T10:13:55.697Z,95.90
2018-01-14T10:16:25.719Z,95.40
2018-01-14T10:18:53.660Z,95.70
2018-01-14T10:21:21.609Z,95.10
2018-01-14T10:23:50.280Z,95.50
2018-01-14T10:26:18.205Z,95.70
2018-01-14T10:28:46.624Z,95.30
2018-01-14T10:31:14.930Z,95.20
2018-01-14T10:33:42.928Z,95.40
2018-01-14T10:36:10.812Z,95.20
2018-01-14T10:38:39.504Z,95.30
2018-01-14T10:41:07.374Z,95.30
2018-01-14T10:43:35.325Z,95.00
2018-01-14T10:46:03.210Z,94.90
2018-01-14T10:48:31.174Z,95.50
2018-01-14T10:50:59.071Z,94.50
2018-01-14T10:53:27.051Z,94.70
2018-01-14T10:55:54.932Z,94.60
2018-01-14T10:58:22.873Z,94.20
2018-01-14T11:00:56.243Z,94.00
2018-01-14T11:03:24.174Z,94.00
2018-01-14T11:05:52.053Z,94.00
2018-01-14T11:08:19.987Z,94.10
2018-01-14T11:10:47.915Z,93.90
2018-01-14T11:13:15.869Z,94.20
2018-01-14T11:15:43.808Z,94.10
2018-01-14T11:18:12.547Z,94.20
2018-01-14T11:20:40.444Z,94.20
2018-01-14T11:23:08.390Z,93.60
2018-01-14T11:25:36.310Z,93.60
2018-01-14T11:28:06.301Z,93.70
2018-01-14T11:30:34.190Z,93.70
2018-01-14T11:33:02.715Z,93.90
2018-01-14T11:35:30.635Z,94.10
2018-01-14T11:37:59.750Z,94.50
2018-01-14T11:40:27.742Z,93.80
2018-01-14T11:42:55.678Z,93.30
2018-01-14T11:45:23.736Z,93.50
2018-01-14T11:47:51.731Z,93.20
2018-01-14T11:50:20.392Z,92.90
2018-01-14T11:52:49.402Z,92.90
2018-01-14T11:55:18.052Z,93.10
2018-01-14T11:57:52.629Z,93.10
2018-01-14T12:00:21.308Z,92.70
2018-01-14T12:02:50.040Z,92.50
2018-01-14T12:05:17.959Z,92.40
2018-01-14T12:07:45.933Z,92.80
2018-01-14T12:10:13.833Z,92.70
2018-01-14T12:12:41.796Z,92.40
2018-01-14T12:15:09.695Z,93.10
2018-01-14T12:17:37.646Z,93.00
2018-01-14T12:20:05.605Z,92.30
2018-01-14T12:22:33.585Z,90.80
2018-01-14T12:25:01.920Z,90.00
2018-01-14T12:27:29.807Z,84.40
2018-01-14T12:29:57.964Z,75.80
2018-01-14T12:32:35.566Z,71.50
2018-01-14T12:35:04.274Z,61.40
2018-01-14T12:37:32.161Z,61.30
2018-01-14T12:40:00.892Z,63.10
2018-01-14T12:42:28.802Z,63.10
2018-01-14T12:44:56.745Z,62.90
2018-01-14T12:47:25.433Z,64.80
2018-01-14T12:49:54.154Z,57.30
2018-01-14T12:52:22.066Z,57.30
2018-01-14T12:54:50.020Z,56.60
2018-01-14T12:57:17.942Z,54.30
2018-01-14T12:59:46.653Z,52.50
2018-01-14T13:02:14.559Z,52.50
2018-01-14T13:04:42.558Z,52.90
2018-01-14T13:07:19.484Z,63.50
2018-01-14T13:09:47.420Z,63.40
2018-01-14T13:12:16.093Z,83.30
2018-01-14T13:14:44.219Z,83.50
2018-01-14T13:17:12.978Z,89.40
2018-01-14T13:19:40.924Z,90.60
2018-01-14T13:22:08.870Z,91.00
2018-01-14T13:24:36.835Z,91.20
2018-01-14T13:27:04.764Z,91.00
2018-01-14T13:29:32.713Z,91.70
2018-01-14T13:32:00.636Z,91.70
2018-01-14T13:34:28.580Z,91.80
2018-01-14T13:37:02.805Z,91.60
2018-01-14T13:39:30.744Z,92.00
2018-01-14T13:41:58.626Z,92.70
2018-01-14T13:44:26.557Z,92.60
2018-01-14T13:46:54.515Z,92.60
2018-01-14T13:49:22.528Z,92.80
2018-01-14T13:51:50.409Z,93.20
2018-01-14T13:54:18.358Z,93.40
2018-01-14T13:56:46.260Z,93.60
2018-01-14T13:59:14.195Z,93.60
2018-01-14T14:01:42.075Z,94.20
2018-01-14T14:04:10.008Z,94.30
2018-01-14T14:06:46.128Z,94.70
2018-01-14T14:09:14.073Z,95.00
2018-01-14T14:11:42.013Z,94.90
2018-01-14T14:14:09.959Z,95.50
2018-01-14T14:16:37.904Z,95.70
2018-01-14T14:19:06.026Z,95.90
2018-01-14T14:21:33.951Z,96.10
2018-01-14T14:24:01.883Z,96.40
2018-01-14T14:26:29.854Z,96.40
2018-01-14T14:28:58.567Z,96.40
2018-01-14T14:31:30.868Z,96.40
2018-01-14T14:34:02.169Z,96.60
2018-01-14T14:36:33.324Z,97.00
2018-01-14T14:39:01.325Z,96.90
2018-01-14T14:41:29.217Z,96.60
2018-01-14T14:43:57.305Z,97.00
2018-01-14T14:46:25.202Z,96.80
2018-01-14T14:48:53.129Z,96.80
2018-01-14T14:51:21.019Z,97.20
2018-01-14T14:53:49.763Z,97.00
2018-01-14T14:56:17.715Z,97.00
2018-01-14T14:58:45.675Z,97.00
2018-01-14T15:01:13.578Z,97.10
2018-01-14T15:03:41.534Z,97.40
2018-01-14T15:06:09.431Z,97.40
2018-01-14T15:08:37.385Z,97.50
2018-01-14T15:11:05.323Z,97.60
2018-01-14T15:13:33.234Z,97.70
2018-01-14T15:16:01.201Z,98.00
2018-01-14T15:18:29.091Z,98.10
2018-01-14T15:20:57.027Z,98.20
2018-01-14T15:23:24.936Z,98.20
2018-01-14T15:25:52.874Z,98.30
2018-01-14T15:28:20.766Z,98.40
2018-01-14T15:30:48.720Z,99.10
2018-01-14T15:33:18.421Z,99.10
2018-01-14T15:35:50.128Z,99.10
2018-01-14T15:38:23.428Z,99.40
2018-01-14T15:40:51.549Z,99.40
2018-01-14T15:43:19.434Z,99.40
2018-01-14T15:45:47.590Z,99.50
2018-01-14T15:48:15.615Z,99.40
2018-01-14T15:50:43.551Z,99.50
2018-01-14T15:53:11.473Z,99.80
2018-01-14T15:55:39.415Z,99.90
2018-01-14T15:58:07.309Z,99.90
2018-01-14T16:00:35.264Z,99.90
2018-01-14T16:03:03.156Z,99.90
2018-01-14T16:05:31.153Z,99.90
2018-01-14T16:07:59.052Z,99.90
2018-01-14T16:10:27.720Z,99.90
2018-01-14T16:12:55.670Z,99.90
2018-01-14T16:15:23.658Z,99.90
2018-01-14T16:17:51.843Z,99.90
2018-01-14T16:20:19.811Z,99.90
2018-01-14T16:22:47.761Z,99.90
2018-01-14T16:25:15.749Z,99.90
2018-01-14T16:27:43.694Z,99.90
2018-01-14T16:30:11.633Z,99.90
2018-01-14T16:32:39.545Z,99.90
2018-01-14T16:35:07.518Z,99.90
2018-01-14T16:37:35.418Z,99.90
2018-01-14T16:40:04.609Z,99.90
2018-01-14T16:42:32.548Z,99.90
2018-01-14T16:45:00.598Z,99.90
2018-01-14T16:47:30.608Z,99.90
2018-01-14T16:49:58.554Z,99.90
2018-01-14T16:52:26.471Z,99.90
2018-01-14T16:54:54.496Z,99.90
2018-01-14T16:57:22.410Z,99.90
2018-01-14T16:59:50.378Z,99.90
2018-01-14T17:02:18.333Z,99.90
2018-01-14T17:04:46.296Z,99.90
2018-01-14T17:07:14.261Z,99.90
2018-01-14T17:09:42.302Z,99.90
2018-01-14T17:12:10.994Z,99.90
2018-01-14T17:14:39.720Z,99.90
2018-01-14T17:17:07.769Z,99.90
2018-01-14T17:19:36.149Z,99.90
2018-01-14T17:22:04.061Z,99.90
2018-01-14T17:24:32.013Z,99.90
2018-01-14T17:26:59.911Z,99.90
2018-01-14T17:29:28.243Z,99.90
2018-01-14T17:31:56.712Z,99.90
2018-01-14T17:34:24.975Z,99.90
2018-01-14T17:36:53.482Z,99.90
2018-01-14T17:39:22.545Z,99.90
2018-01-14T17:41:51.237Z,99.90
2018-01-14T17:44:19.196Z,99.90
2018-01-14T17:46:48.298Z,99.90
2018-01-14T17:49:16.244Z,99.90
2018-01-14T17:51:44.162Z,99.90
2018-01-14T17:54:12.062Z,99.90
2018-01-14T17:56:40.045Z,99.90
2018-01-14T17:59:07.968Z,99.90
2018-01-14T18:01:35.949Z,99.90
2018-01-14T18:04:03.929Z,99.90
2018-01-14T18:06:31.945Z,99.90
2018-01-14T18:08:59.888Z,99.90
2018-01-14T18:11:27.876Z,99.90
2018-01-14T18:13:55.791Z,99.90
2018-01-14T18:16:23.995Z,99.90
2018-01-14T18:18:51.923Z,99.90
2018-01-14T18:21:19.857Z,99.90
2018-01-14T18:23:47.766Z,99.90
2018-01-14T18:26:15.754Z,99.90
2018-01-14T18:28:43.678Z,99.90
2018-01-14T18:31:11.636Z,99.90
2018-01-14T18:33:39.544Z,99.90
2018-01-14T18:36:08.336Z,99.90
2018-01-14T18:38:36.229Z,99.90
2018-01-14T18:41:04.942Z,99.90
2018-01-14T18:43:32.853Z,99.90
2018-01-14T18:46:13.723Z,99.90
2018-01-14T18:48:42.397Z,99.90
2018-01-14T18:51:10.344Z,99.90
2018-01-14T18:53:38.249Z,99.90
2018-01-14T18:56:07.012Z,99.90
2018-01-14T18:58:35.039Z,99.90
2018-01-14T19:01:03.004Z,99.90
2018-01-14T19:03:30.902Z,99.90
2018-01-14T19:05:58.861Z,99.90
2018-01-14T19:08:26.785Z,99.90
2018-01-14T19:10:55.556Z,99.90
2018-01-14T19:13:23.440Z,99.90
2018-01-14T19:15:51.386Z,99.90
2018-01-14T19:18:19.297Z,99.90
2018-01-14T19:20:47.273Z,99.90
2018-01-14T19:23:15.150Z,99.90
2018-01-14T19:25:43.113Z,99.90
2018-01-14T19:28:11.260Z,99.90
2018-01-14T19:30:39.412Z,99.90
2018-01-14T19:33:07.320Z,99.90
2018-01-14T19:35:35.231Z,99.90
2018-01-14T19:38:04.020Z,99.90
2018-01-14T19:40:31.964Z,99.90
2018-01-14T19:42:59.933Z,99.90
2018-01-14T19:45:27.870Z,99.90
2018-01-14T19:47:57.743Z,99.90
2018-01-14T19:50:25.705Z,99.90
2018-01-14T19:52:53.666Z,99.90
2018-01-14T19:55:21.567Z,99.90
2018-01-14T19:57:49.705Z,99.90
2018-01-14T20:00:17.681Z,99.90
2018-01-14T20:02:45.609Z,99.90
2018-01-14T20:05:13.563Z,99.90
2018-01-14T20:07:41.462Z,99.90
2018-01-14T20:10:09.419Z,99.90
2018-01-14T20:12:38.145Z,99.90
2018-01-14T20:15:06.144Z,99.90
2018-01-14T20:17:34.061Z,99.90
2018-01-14T20:20:02.102Z,99.90
2018-01-14T20:22:30.027Z,99.90
2018-01-14T20:24:57.946Z,99.90
2018-01-14T20:27:25.958Z,99.90
2018-01-14T20:29:53.871Z,99.90
2018-01-14T20:32:21.814Z,99.90
2018-01-14T20:34:49.778Z,99.90
2018-01-14T20:37:17.796Z,99.90
2018-01-14T20:39:46.148Z,99.90
2018-01-14T20:42:14.328Z,99.90
2018-01-14T20:44:47.918Z,99.90
2018-01-14T20:47:15.878Z,99.90
2018-01-14T20:49:43.861Z,99.90
2018-01-14T20:52:11.779Z,99.90
2018-01-14T20:54:39.747Z,99.90
2018-01-14T20:57:07.647Z,99.90
2018-01-14T20:59:36.422Z,99.90
2018-01-14T21:02:04.351Z,99.90
2018-01-14T21:04:32.332Z,99.90
2018-01-14T21:07:00.236Z,99.90
2018-01-14T21:09:28.131Z,99.90
2018-01-14T21:11:56.094Z,99.90
2018-01-14T21:14:23.992Z,99.90
2018-01-14T21:16:52.061Z,99.90
2018-01-14T21:19:19.961Z,99.90
2018-01-14T21:21:47.961Z,99.90
2018-01-14T21:24:15.932Z,99.90
2018-01-14T21:26:43.824Z,99.90
2018-01-14T21:29:11.770Z,99.90
2018-01-14T21:31:39.661Z,99.90
2018-01-14T21:34:07.619Z,99.90
2018-01-14T21:36:37.692Z,99.90
2018-01-14T21:39:05.709Z,99.90
2018-01-14T21:41:33.648Z,99.90
2018-01-14T21:44:02.317Z,99.90
2018-01-14T21:46:30.269Z,99.90
2018-01-14T21:48:58.170Z,99.90
2018-01-14T21:51:26.891Z,99.90
2018-01-14T21:53:54.813Z,99.90
2018-01-14T21:56:26.719Z,99.90
2018-01-14T21:58:54.856Z,99.90
2018-01-14T22:01:22.800Z,99.90
2018-01-14T22:03:50.712Z,99.90
2018-01-14T22:06:18.666Z,99.90
2018-01-14T22:08:49.261Z,99.90
2018-01-14T22:11:17.169Z,99.90
2018-01-14T22:13:45.106Z,99.90
2018-01-14T22:16:13.030Z,99.90
2018-01-14T22:18:41.010Z,99.90
2018-01-14T22:21:08.911Z,99.90
2018-01-14T22:23:36.863Z,99.90
2018-01-14T22:26:04.822Z,99.90
2018-01-14T22:28:32.822Z,99.90
2018-01-14T22:31:00.703Z,99.90
2018-01-14T22:33:28.648Z,99.90
2018-01-14T22:35:56.562Z,99.90
2018-01-14T22:38:24.518Z,99.90
2018-01-14T22:40:52.413Z,99.90
2018-01-14T22:43:20.407Z,99.90
2018-01-14T22:45:48.327Z,99.90
2018-01-14T22:48:17.112Z,99.90
2018-01-14T22:50:45.087Z,99.90
2018-01-14T22:53:12.994Z,99.90
2018-01-14T22:55:40.937Z,99.90
2018-01-14T22:58:09.610Z,99.90
2018-01-14T23:00:37.628Z,99.90
2018-01-14T23:03:05.518Z,99.90
2018-01-14T23:05:33.481Z,99.90
2018-01-14T23:08:01.373Z,99.90
2018-01-14T23:10:29.325Z,99.90
2018-01-14T23:12:57.246Z,99.90
2018-01-14T23:15:25.972Z,99.90
2018-01-14T23:17:54.915Z,99.90
2018-01-14T23:20:22.857Z,99.90
2018-01-14T23:22:50.808Z,99.90
2018-01-14T23:25:18.741Z,99.90
2018-01-14T23:27:46.728Z,99.90
2018-01-14T23:30:14.614Z,99.90
2018-01-14T23:32:43.327Z,99.90
2018-01-14T23:35:11.305Z,99.90
2018-01-14T23:37:39.248Z,99.90
2018-01-14T23:40:07.139Z,99.90
2018-01-14T23:42:35.070Z,99.90
2018-01-14T23:45:02.977Z,99.90
2018-01-14T23:47:34.907Z,99.90
2018-01-14T23:50:02.971Z,99.90
2018-01-14T23:52:30.948Z,99.90
2018-01-14T23:54:59.608Z,99.90
2018-01-14T23:57:27.603Z,99.90
2018-01-14T23:59:55.506Z,99.90
